createdAt,value
2022-12-22T00:00:26.899Z,89.85
2022-12-22T00:04:11.086Z,79.68
2022-12-22T00:06:57.074Z,84.87
2022-12-22T00:10:08.282Z,81.32
2022-12-22T00:13:14.760Z,82.28
2022-12-22T00:16:04.442Z,88.18
2022-12-22T00:18:54.472Z,95.07
2022-12-22T00:21:43.076Z,85.63
2022-12-22T00:24:35.145Z,81.70
2022-12-22T00:27:45.779Z,84.80
2022-12-22T00:30:34.574Z,91.70
2022-12-22T00:33:27.907Z,83.85
2022-12-22T00:36:13.425Z,91.63
2022-12-22T00:38:58.580Z,99.75
2022-12-22T00:41:43.922Z,98.97
2022-12-22T00:44:29.411Z,109.22
2022-12-22T00:47:16.356Z,116.03
2022-12-22T00:50:05.680Z,110.57
2022-12-22T00:52:51.759Z,108.70
2022-12-22T00:55:44.222Z,114.57
2022-12-22T00:58:36.210Z,109.85
2022-12-22T01:01:22.008Z,107.68
2022-12-22T01:04:07.805Z,112.55
2022-12-22T01:06:55.216Z,103.28
2022-12-22T01:09:41.572Z,100.32
2022-12-22T01:12:42.970Z,94.88
2022-12-22T01:15:36.176Z,103.90
2022-12-22T01:18:21.991Z,105.28
2022-12-22T01:21:09.802Z,88.20
2022-12-22T01:23:56.363Z,90.15
2022-12-22T01:26:42.418Z,84.50
2022-12-22T01:29:27.751Z,85.03
2022-12-22T01:32:13.373Z,71.25
2022-12-22T01:34:59.607Z,73.68
2022-12-22T01:37:45.151Z,69.97
2022-12-22T01:40:38.140Z,76.85
2022-12-22T01:43:39.823Z,71.47
2022-12-22T01:46:48.115Z,72.15
2022-12-22T01:49:56.451Z,69.35
2022-12-22T01:52:48.992Z,64.53
2022-12-22T01:55:39.708Z,69.95
2022-12-22T01:58:35.139Z,63.47
2022-12-22T02:01:20.588Z,66.30
2022-12-22T02:04:06.017Z,67.22
2022-12-22T02:07:00.403Z,67.95
2022-12-22T02:10:04.141Z,71.38
2022-12-22T02:13:08.266Z,71.57
2022-12-22T02:16:29.721Z,67.22
2022-12-22T02:19:29.549Z,61.95
2022-12-22T02:22:42.426Z,69.75
2022-12-22T02:25:47.263Z,66.68
2022-12-22T02:28:33.125Z,64.45
2022-12-22T02:31:18.439Z,68.88
2022-12-22T02:34:04.019Z,67.20
2022-12-22T02:37:30.816Z,60.42
2022-12-22T02:40:41.618Z,62.22
2022-12-22T02:43:46.372Z,58.90
2022-12-22T02:46:44.527Z,66.38
2022-12-22T02:49:42.412Z,64.43
2022-12-22T02:52:36.346Z,70.90
2022-12-22T02:58:10.404Z,69.20
2022-12-22T03:00:57.872Z,73.68
2022-12-22T03:03:43.454Z,77.05
2022-12-22T03:06:28.938Z,81.43
2022-12-22T03:09:14.275Z,77.53
2022-12-22T03:11:59.630Z,78.88
2022-12-22T03:14:46.146Z,85.05
2022-12-22T03:17:31.751Z,84.25
2022-12-22T03:20:17.610Z,77.28
2022-12-22T03:23:03.062Z,82.65
2022-12-22T03:25:48.444Z,97.20
2022-12-22T03:28:15.269Z,87.13
2022-12-22T03:30:42.439Z,85.95
2022-12-22T03:33:09.133Z,86.97
2022-12-22T03:35:36.058Z,91.40
2022-12-22T03:38:03.818Z,81.38
2022-12-22T03:40:33.947Z,89.97
2022-12-22T03:43:19.379Z,86.82
2022-12-22T03:46:04.813Z,81.45
2022-12-22T03:48:31.570Z,86.85
2022-12-22T03:50:58.415Z,85.47
2022-12-22T03:53:25.277Z,89.50
2022-12-22T03:55:52.336Z,90.45
2022-12-22T03:58:19.199Z,85.35
2022-12-22T04:00:46.086Z,94.55
2022-12-22T04:03:13.398Z,89.53
2022-12-22T04:05:40.407Z,101.65
2022-12-22T04:08:07.733Z,99.25
2022-12-22T04:10:52.869Z,89.45
2022-12-22T04:13:19.599Z,90.80
2022-12-22T04:15:46.587Z,96.63
2022-12-22T04:18:13.279Z,98.70
2022-12-22T04:20:40.027Z,94.05
2022-12-22T04:23:06.871Z,103.40
2022-12-22T04:25:33.692Z,108.35
2022-12-22T04:28:00.475Z,106.93
2022-12-22T04:30:27.226Z,96.65
2022-12-22T04:32:54.004Z,105.95
2022-12-22T04:35:20.775Z,99.93
2022-12-22T04:37:47.527Z,103.45
2022-12-22T04:40:14.378Z,102.20
2022-12-22T04:42:41.095Z,105.35
2022-12-22T04:45:08.527Z,97.40
2022-12-22T04:47:35.353Z,99.57
2022-12-22T04:50:02.146Z,102.45
2022-12-22T04:52:30.239Z,95.07
2022-12-22T04:54:56.971Z,101.15
2022-12-22T04:57:23.981Z,102.07
2022-12-22T04:59:50.748Z,103.53
2022-12-22T05:02:17.857Z,106.68
2022-12-22T05:04:44.604Z,115.07
2022-12-22T05:07:11.394Z,101.85
2022-12-22T05:09:38.163Z,109.88
2022-12-22T05:12:26.547Z,108.97
2022-12-22T05:14:53.319Z,107.38
2022-12-22T05:17:20.302Z,102.93
2022-12-22T05:19:47.047Z,101.40
2022-12-22T05:22:13.852Z,107.10
2022-12-22T05:24:40.678Z,110.78
2022-12-22T05:27:07.671Z,123.45
2022-12-22T05:29:34.590Z,119.60
2022-12-22T05:32:01.403Z,124.45
2022-12-22T05:34:28.623Z,133.20
2022-12-22T05:36:55.785Z,132.02
2022-12-22T05:39:22.682Z,132.18
2022-12-22T05:41:49.928Z,127.53
2022-12-22T05:44:16.658Z,138.13
2022-12-22T05:46:43.438Z,146.75
2022-12-22T05:49:10.211Z,148.05
2022-12-22T05:51:37.047Z,135.88
2022-12-22T05:54:03.880Z,141.18
2022-12-22T05:56:30.616Z,143.63
2022-12-22T05:58:57.338Z,136.38
2022-12-22T06:01:24.275Z,151.30
2022-12-22T06:03:56.158Z,145.10
2022-12-22T06:06:26.313Z,148.95
2022-12-22T06:08:53.107Z,144.15
2022-12-22T06:11:19.929Z,157.10
2022-12-22T06:13:47.079Z,154.02
2022-12-22T06:16:14.003Z,156.40
2022-12-22T06:18:40.758Z,146.85
2022-12-22T06:21:07.704Z,158.80
2022-12-22T06:23:34.547Z,147.88
2022-12-22T06:26:02.739Z,149.15
2022-12-22T06:28:30.045Z,142.02
2022-12-22T06:30:57.039Z,125.80
2022-12-22T06:33:24.119Z,116.57
2022-12-22T06:35:57.628Z,112.20
2022-12-22T06:38:25.960Z,116.50
2022-12-22T06:40:52.849Z,115.80
2022-12-22T06:43:20.049Z,109.20
2022-12-22T06:45:46.871Z,109.68
2022-12-22T06:48:14.017Z,101.50
2022-12-22T06:50:41.274Z,111.47
2022-12-22T06:53:08.938Z,104.35
2022-12-22T06:55:36.818Z,104.78
2022-12-22T06:58:06.897Z,98.85
2022-12-22T07:00:35.564Z,110.72
2022-12-22T07:03:02.545Z,107.38
2022-12-22T07:05:32.030Z,104.60
2022-12-22T07:08:05.959Z,100.28
2022-12-22T07:10:53.415Z,97.88
2022-12-22T07:13:20.136Z,103.43
2022-12-22T07:15:55.286Z,101.03
2022-12-22T07:18:26.883Z,100.47
2022-12-22T07:20:54.829Z,102.88
2022-12-22T07:23:21.688Z,92.45
2022-12-22T07:25:49.032Z,93.35
2022-12-22T07:28:20.620Z,97.35
2022-12-22T07:30:49.198Z,97.10
2022-12-22T07:33:16.549Z,97.35
2022-12-22T07:35:43.514Z,95.22
2022-12-22T07:38:10.398Z,91.80
2022-12-22T07:40:41.864Z,94.32
2022-12-22T07:43:09.700Z,96.20
2022-12-22T07:45:36.602Z,96.90
2022-12-22T07:48:28.091Z,100.43
2022-12-22T07:51:01.960Z,109.88
2022-12-22T07:53:29.126Z,104.95
2022-12-22T07:55:55.970Z,124.18
2022-12-22T07:58:22.706Z,111.20
2022-12-22T08:00:49.695Z,117.80
2022-12-22T08:03:16.961Z,111.35
2022-12-22T08:05:44.682Z,116.07
2022-12-22T08:08:11.355Z,118.65
2022-12-22T08:10:38.121Z,144.25
2022-12-22T08:13:05.054Z,112.45
2022-12-22T08:15:31.902Z,134.98
2022-12-22T08:17:58.600Z,118.13
2022-12-22T08:20:26.023Z,137.85
2022-12-22T08:22:52.711Z,152.30
2022-12-22T08:25:19.507Z,129.48
2022-12-22T08:27:51.135Z,123.50
2022-12-22T08:30:18.002Z,133.82
2022-12-22T08:32:49.799Z,128.27
2022-12-22T08:35:16.716Z,126.00
2022-12-22T08:37:47.146Z,127.18
2022-12-22T08:40:25.271Z,133.15
2022-12-22T08:42:59.078Z,119.40
2022-12-22T08:45:26.287Z,122.03
2022-12-22T08:47:53.021Z,119.97
2022-12-22T08:50:19.902Z,112.25
2022-12-22T08:52:46.658Z,120.40
2022-12-22T08:55:14.034Z,128.10
2022-12-22T08:57:41.068Z,118.50
2022-12-22T09:00:09.000Z,124.47
2022-12-22T09:02:38.690Z,126.30
2022-12-22T09:05:05.860Z,123.55
2022-12-22T09:07:32.630Z,128.32
2022-12-22T09:09:59.312Z,133.98
2022-12-22T09:12:27.214Z,127.93
2022-12-22T09:14:53.959Z,122.60
2022-12-22T09:17:20.771Z,127.03
2022-12-22T09:19:47.505Z,130.25
2022-12-22T09:22:14.352Z,124.35
2022-12-22T09:24:41.179Z,118.72
2022-12-22T09:27:09.303Z,116.20
2022-12-22T09:29:37.282Z,124.90
2022-12-22T09:32:04.821Z,125.90
2022-12-22T09:34:31.698Z,128.82
2022-12-22T09:36:58.470Z,126.65
2022-12-22T09:39:29.155Z,125.05
2022-12-22T09:41:58.749Z,128.32
2022-12-22T09:44:45.141Z,125.57
2022-12-22T09:47:28.334Z,119.97
2022-12-22T09:49:57.869Z,124.35
2022-12-22T09:52:36.854Z,129.07
2022-12-22T09:55:11.762Z,124.97
2022-12-22T09:57:39.656Z,124.82
2022-12-22T10:00:17.065Z,114.25
2022-12-22T10:02:58.973Z,126.07
2022-12-22T10:05:42.903Z,111.95
2022-12-22T10:08:21.043Z,105.05
2022-12-22T10:10:52.920Z,119.97
2022-12-22T10:13:20.203Z,116.50
2022-12-22T10:15:47.280Z,116.72
2022-12-22T10:18:19.713Z,115.97
2022-12-22T10:21:06.318Z,102.80
2022-12-22T10:23:35.637Z,115.40
2022-12-22T10:26:28.708Z,119.60
2022-12-22T10:29:06.048Z,119.72
2022-12-22T10:31:35.468Z,108.85
2022-12-22T10:34:16.689Z,120.13
2022-12-22T10:36:52.147Z,118.32
2022-12-22T10:39:28.979Z,116.72
2022-12-22T10:42:00.544Z,113.65
2022-12-22T10:44:30.783Z,105.32
2022-12-22T10:46:59.857Z,112.30
2022-12-22T10:49:28.187Z,118.43
2022-12-22T10:52:15.236Z,115.13
2022-12-22T10:54:44.221Z,112.72
2022-12-22T10:57:16.871Z,109.13
2022-12-22T10:59:53.719Z,111.82
2022-12-22T11:02:28.345Z,100.72
2022-12-22T11:05:09.626Z,111.72
2022-12-22T11:07:39.500Z,106.47
2022-12-22T11:10:21.662Z,112.25
2022-12-22T11:13:10.003Z,111.28
2022-12-22T11:15:36.739Z,99.85
2022-12-22T11:18:36.975Z,98.57
2022-12-22T11:21:03.669Z,101.75
2022-12-22T11:23:36.401Z,105.57
2022-12-22T11:26:20.023Z,109.30
2022-12-22T11:31:41.462Z,107.28
2022-12-22T11:34:37.357Z,102.88
2022-12-22T11:37:31.871Z,101.47
2022-12-22T11:40:40.403Z,100.10
2022-12-22T11:43:15.997Z,96.50
2022-12-22T11:46:02.269Z,101.93
2022-12-22T11:48:45.027Z,103.93
2022-12-22T11:51:27.505Z,99.33
2022-12-22T11:56:36.736Z,101.13
2022-12-22T11:59:18.718Z,107.28
2022-12-22T12:01:51.279Z,94.75
2022-12-22T12:04:24.109Z,98.65
2022-12-22T12:07:15.064Z,103.90
2022-12-22T12:09:54.415Z,99.88
2022-12-22T12:12:39.572Z,98.65
2022-12-22T12:15:24.432Z,104.93
2022-12-22T12:17:51.199Z,100.82
2022-12-22T12:20:31.710Z,101.03
2022-12-22T12:23:24.194Z,100.53
2022-12-22T12:26:11.889Z,97.82
2022-12-22T12:28:38.615Z,100.78
2022-12-22T12:31:07.397Z,96.82
2022-12-22T12:33:54.248Z,110.63
2022-12-22T12:36:45.410Z,106.32
2022-12-22T12:39:28.791Z,111.80
2022-12-22T12:42:17.160Z,103.32
2022-12-22T12:44:44.573Z,112.43
2022-12-22T12:47:27.364Z,94.63
2022-12-22T12:50:10.600Z,108.80
2022-12-22T12:52:57.589Z,110.50
2022-12-22T12:55:32.752Z,106.38
2022-12-22T12:58:03.415Z,105.20
2022-12-22T13:00:33.252Z,98.88
2022-12-22T13:03:02.380Z,103.38
2022-12-22T13:05:48.687Z,112.28
2022-12-22T13:08:18.223Z,112.93
2022-12-22T13:10:54.194Z,103.78
2022-12-22T13:13:23.825Z,111.88
2022-12-22T13:16:02.740Z,108.25
2022-12-22T13:18:51.268Z,95.35
2022-12-22T13:21:53.532Z,117.13
2022-12-22T13:24:29.548Z,103.03
2022-12-22T13:27:01.185Z,101.63
2022-12-22T13:29:29.903Z,110.32
2022-12-22T13:32:05.103Z,111.93
2022-12-22T13:37:48.234Z,98.38
2022-12-22T13:40:40.036Z,99.68
2022-12-22T13:43:13.672Z,97.07
2022-12-22T13:45:46.656Z,100.70
2022-12-22T13:48:25.574Z,101.03
2022-12-22T13:50:55.636Z,104.07
2022-12-22T13:56:46.753Z,109.07
2022-12-22T13:59:40.736Z,91.65
2022-12-22T14:02:11.376Z,112.70
2022-12-22T14:04:41.538Z,96.88
2022-12-22T14:07:19.359Z,106.22
2022-12-22T14:09:48.015Z,96.00
2022-12-22T14:12:21.174Z,95.03
2022-12-22T14:14:51.000Z,102.82
2022-12-22T14:17:29.168Z,90.68
2022-12-22T14:20:00.875Z,87.47
2022-12-22T14:22:45.495Z,93.15
2022-12-22T14:25:25.623Z,93.88
2022-12-22T14:27:54.776Z,89.75
2022-12-22T14:30:34.821Z,85.55
2022-12-22T14:33:27.798Z,91.70
2022-12-22T14:36:17.897Z,90.43
2022-12-22T14:39:05.424Z,87.55
2022-12-22T14:41:51.762Z,104.82
2022-12-22T14:44:42.405Z,104.57
2022-12-22T14:47:18.031Z,100.28
2022-12-22T14:49:44.811Z,106.28
2022-12-22T14:52:33.276Z,111.80
2022-12-22T14:55:00.639Z,100.32
2022-12-22T14:57:39.529Z,109.78
2022-12-22T15:00:27.526Z,103.35
2022-12-22T15:02:57.593Z,100.32
2022-12-22T15:05:37.678Z,106.95
2022-12-22T15:08:08.322Z,103.43
2022-12-22T15:10:44.146Z,101.60
2022-12-22T15:13:24.468Z,107.82
2022-12-22T15:15:52.280Z,93.78
2022-12-22T15:18:26.677Z,98.95
2022-12-22T15:20:54.516Z,97.35
2022-12-22T15:23:21.359Z,113.60
2022-12-22T15:25:48.240Z,113.88
2022-12-22T15:28:15.402Z,110.10
2022-12-22T15:30:42.808Z,115.63
2022-12-22T15:33:18.756Z,107.68
2022-12-22T15:35:46.040Z,120.90
2022-12-22T15:38:18.000Z,112.38
2022-12-22T15:40:45.807Z,110.05
2022-12-22T15:43:44.774Z,112.63
2022-12-22T15:46:02.571Z,117.13
2022-12-22T15:48:33.044Z,142.60
2022-12-22T15:51:00.684Z,117.78
2022-12-22T15:53:27.606Z,124.85
2022-12-22T15:55:58.594Z,122.28
2022-12-22T15:58:30.905Z,129.38
2022-12-22T16:00:57.740Z,120.00
2022-12-22T16:03:24.675Z,112.85
2022-12-22T16:05:52.886Z,121.75
2022-12-22T16:08:30.198Z,109.10
2022-12-22T16:10:57.194Z,110.95
2022-12-22T16:13:27.278Z,104.47
2022-12-22T16:15:56.224Z,109.35
2022-12-22T16:18:23.149Z,112.40
2022-12-22T16:20:50.784Z,125.25
2022-12-22T16:23:22.007Z,117.68
2022-12-22T16:25:49.348Z,116.38
2022-12-22T16:28:22.030Z,111.63
2022-12-22T16:30:49.552Z,106.60
2022-12-22T16:33:16.665Z,108.18
2022-12-22T16:35:43.621Z,120.05
2022-12-22T16:38:16.371Z,111.10
2022-12-22T16:40:53.011Z,110.63
2022-12-22T16:46:23.587Z,117.68
2022-12-22T16:48:53.273Z,105.35
2022-12-22T16:51:29.824Z,110.00
2022-12-22T16:53:56.856Z,100.25
2022-12-22T16:56:26.939Z,103.72
2022-12-22T16:58:53.851Z,96.68
2022-12-22T17:01:29.559Z,92.85
2022-12-22T17:04:00.830Z,102.22
2022-12-22T17:06:27.756Z,103.97
2022-12-22T17:08:54.675Z,103.43
2022-12-22T17:11:25.172Z,87.97
2022-12-22T17:13:57.705Z,102.82
2022-12-22T17:16:24.544Z,101.93
2022-12-22T17:18:51.462Z,109.40
2022-12-22T17:21:20.450Z,104.20
2022-12-22T17:23:55.228Z,100.85
2022-12-22T17:26:24.960Z,98.18
2022-12-22T17:28:52.240Z,103.72
2022-12-22T17:31:23.164Z,98.43
2022-12-22T17:33:50.589Z,91.40
2022-12-22T17:36:34.357Z,95.72
2022-12-22T17:39:02.134Z,93.45
2022-12-22T17:41:28.982Z,94.65
2022-12-22T17:43:55.847Z,98.63
2022-12-22T17:46:22.865Z,93.88
2022-12-22T17:48:50.242Z,97.00
2022-12-22T17:51:21.631Z,97.35
2022-12-22T17:53:48.679Z,96.38
2022-12-22T17:56:18.742Z,109.03
2022-12-22T17:58:46.029Z,108.95
2022-12-22T18:01:25.336Z,110.10
2022-12-22T18:03:52.374Z,105.82
2022-12-22T18:06:21.847Z,108.80
2022-12-22T18:08:49.313Z,97.40
2022-12-22T18:11:16.660Z,121.45
2022-12-22T18:13:43.637Z,109.90
2022-12-22T18:16:15.929Z,109.47
2022-12-22T18:18:43.846Z,118.10
2022-12-22T18:21:22.729Z,129.13
2022-12-22T18:23:51.212Z,126.18
2022-12-22T18:26:22.390Z,127.07
2022-12-22T18:28:49.691Z,135.35
2022-12-22T18:31:16.598Z,134.32
2022-12-22T18:33:43.635Z,132.52
2022-12-22T18:36:33.875Z,127.03
2022-12-22T18:39:02.500Z,145.07
2022-12-22T18:41:34.758Z,129.38
2022-12-22T18:44:01.601Z,156.80
2022-12-22T18:46:28.515Z,166.27
2022-12-22T18:48:59.036Z,164.60
2022-12-22T18:51:30.385Z,184.70
2022-12-22T18:53:57.580Z,193.23
2022-12-22T18:56:24.328Z,170.98
2022-12-22T18:58:51.077Z,175.93
2022-12-22T19:01:24.600Z,150.60
2022-12-22T19:03:53.502Z,159.80
2022-12-22T19:06:21.874Z,173.40
2022-12-22T19:08:49.510Z,178.63
2022-12-22T19:11:18.726Z,187.55
2022-12-22T19:13:47.885Z,181.13
2022-12-22T19:16:17.944Z,191.52
2022-12-22T19:18:44.971Z,185.25
2022-12-22T19:21:17.268Z,182.45
2022-12-22T19:23:44.981Z,170.25
2022-12-22T19:26:24.343Z,161.73
2022-12-22T19:29:00.523Z,167.65
2022-12-22T19:31:34.445Z,172.18
2022-12-22T19:34:06.387Z,171.77
2022-12-22T19:36:33.509Z,158.30
2022-12-22T19:39:04.378Z,147.85
2022-12-22T19:41:42.064Z,153.25
2022-12-22T19:44:21.541Z,142.40
2022-12-22T19:46:48.606Z,140.15
2022-12-22T19:49:21.228Z,157.70
2022-12-22T19:51:48.140Z,148.80
2022-12-22T19:54:15.094Z,139.18
2022-12-22T19:56:44.029Z,139.02
2022-12-22T19:59:39.149Z,148.57
2022-12-22T20:02:21.847Z,147.82
2022-12-22T20:04:50.364Z,140.23
2022-12-22T20:07:21.897Z,138.65
2022-12-22T20:10:10.101Z,139.35
2022-12-22T20:12:40.096Z,145.18
2022-12-22T20:15:17.106Z,145.57
2022-12-22T20:17:44.233Z,149.27
2022-12-22T20:20:18.008Z,162.02
2022-12-22T20:22:53.069Z,151.55
2022-12-22T20:25:22.697Z,146.65
2022-12-22T20:27:50.782Z,162.32
2022-12-22T20:30:17.522Z,142.40
2022-12-22T20:32:44.416Z,132.68
2022-12-22T20:35:32.986Z,143.45
2022-12-22T20:37:59.810Z,133.20
2022-12-22T20:40:29.394Z,127.20
2022-12-22T20:42:57.732Z,144.63
2022-12-22T20:45:29.449Z,127.00
2022-12-22T20:47:57.735Z,142.15
2022-12-22T20:50:30.170Z,138.07
2022-12-22T20:52:58.247Z,129.32
2022-12-22T20:55:28.398Z,135.43
2022-12-22T20:57:55.709Z,132.23
2022-12-22T21:00:28.512Z,136.52
2022-12-22T21:03:46.507Z,125.63
2022-12-22T21:06:25.657Z,118.10
2022-12-22T21:09:01.203Z,138.80
2022-12-22T21:11:40.719Z,133.93
2022-12-22T21:14:32.940Z,119.53
2022-12-22T21:16:59.974Z,117.55
2022-12-22T21:19:26.945Z,119.55
2022-12-22T21:22:11.528Z,116.50
2022-12-22T21:24:38.557Z,115.47
2022-12-22T21:27:20.484Z,125.85
2022-12-22T21:29:47.741Z,103.60
2022-12-22T21:32:15.529Z,109.70
2022-12-22T21:34:42.523Z,114.53
2022-12-22T21:37:17.541Z,110.50
2022-12-22T21:39:44.940Z,104.50
2022-12-22T21:42:17.143Z,108.30
2022-12-22T21:44:45.281Z,108.90
2022-12-22T21:47:36.137Z,93.20
2022-12-22T21:50:05.038Z,97.10
2022-12-22T21:52:31.866Z,89.78
2022-12-22T21:54:58.552Z,93.47
2022-12-22T21:57:25.966Z,102.82
2022-12-22T21:59:52.700Z,104.35
2022-12-22T22:02:19.633Z,100.47
2022-12-22T22:04:53.681Z,103.85
2022-12-22T22:07:21.523Z,105.28
2022-12-22T22:09:48.241Z,105.50
2022-12-22T22:12:40.319Z,104.40
2022-12-22T22:15:08.028Z,105.13
2022-12-22T22:17:34.810Z,103.13
2022-12-22T22:20:04.400Z,103.18
2022-12-22T22:22:34.982Z,100.15
2022-12-22T22:25:01.794Z,98.10
2022-12-22T22:27:29.480Z,99.75
2022-12-22T22:29:56.323Z,105.57
2022-12-22T22:32:23.257Z,100.00
2022-12-22T22:34:51.154Z,108.40
2022-12-22T22:37:18.151Z,104.35
2022-12-22T22:39:45.880Z,109.95
2022-12-22T22:42:12.595Z,108.18
2022-12-22T22:44:39.277Z,91.22
2022-12-22T22:47:06.082Z,93.82
2022-12-22T22:49:33.017Z,97.20
2022-12-22T22:51:59.734Z,90.40
2022-12-22T22:54:27.626Z,88.40
2022-12-22T22:56:54.539Z,84.72
2022-12-22T22:59:21.408Z,90.00
2022-12-22T23:01:48.289Z,90.38
2022-12-22T23:04:15.166Z,86.88
2022-12-22T23:06:42.075Z,82.97
2022-12-22T23:09:09.584Z,89.38
2022-12-22T23:11:36.479Z,79.57
2022-12-22T23:14:03.288Z,80.25
2022-12-22T23:16:35.714Z,88.43
2022-12-22T23:19:05.493Z,81.88
2022-12-22T23:21:33.046Z,84.10
2022-12-22T23:23:59.841Z,82.00
2022-12-22T23:26:27.209Z,83.50
2022-12-22T23:28:59.137Z,79.20
2022-12-22T23:31:28.171Z,79.80
2022-12-22T23:33:57.296Z,79.88
2022-12-22T23:36:24.359Z,80.30
2022-12-22T23:38:51.843Z,78.50
2022-12-22T23:41:19.014Z,75.32
2022-12-22T23:43:46.000Z,73.88
2022-12-22T23:46:15.747Z,80.95
2022-12-22T23:48:43.502Z,77.25
2022-12-22T23:51:11.833Z,75.15
2022-12-22T23:53:39.026Z,77.78
2022-12-22T23:56:06.260Z,78.93
2022-12-22T23:58:32.997Z,82.43
